<?xml version='1.0' encoding='UTF-8'?><gpx version="1.1" creator="JPX - https://github.com/jenetics/jpx" xmlns="http://www.topografix.com/GPX/1/1"><trk><trkseg><trkpt lat="42.66550179798143" lon="12.732704617238694"><ele>668.7142857142857</ele><time>2026-04-11T08:24:31Z</time></trkpt><trkpt lat="42.66547906031434" lon="12.732792074643458"><ele>669.4285714285714</ele><time>2026-04-11T08:24:36Z</time></trkpt><trkpt lat="42.665448478282514" lon="12.732874282096278"><ele>670.1428571428571</ele><time>2026-04-11T08:24:41Z</time></trkpt><trkpt lat="42.66539988740026" lon="12.732942195248134"><ele>670.8571428571429</ele><time>2026-04-11T08:24:46Z</time></trkpt><trkpt lat="42.66538816840717" lon="12.733031189917472"><ele>671.5714285714286</ele><time>2026-04-11T08:24:51Z</time></trkpt><trkpt lat="42.665358970328015" lon="12.733120188544994"><ele>672.2857142857143</ele><time>2026-04-11T08:24:58Z</time></trkpt><trkpt lat="42.665309216891046" lon="12.733182583935658"><ele>673.0</ele><time>2026-04-11T08:25:04Z</time></trkpt><trkpt lat="42.66525412161397" lon="12.733244305333862"><ele>673.0</ele><time>2026-04-11T08:25:10Z</time></trkpt><trkpt lat="42.66520432300184" lon="12.733315371666889"><ele>673.0</ele><time>2026-04-11T08:25:16Z</time></trkpt><trkpt lat="42.66517710457729" lon="12.733393701113787"><ele>673.0</ele><time>2026-04-11T08:25:21Z</time></trkpt><trkpt lat="42.665204601285645" lon="12.733487159289348"><ele>673.0</ele><time>2026-04-11T08:26:59Z</time></trkpt><trkpt lat="42.66527861342007" lon="12.733490773795594"><ele>673.0</ele><time>2026-04-11T08:27:57Z</time></trkpt><trkpt lat="42.66531742196301" lon="12.733408453322706"><ele>673.0</ele><time>2026-04-11T08:28:02Z</time></trkpt><trkpt lat="42.665359742241684" lon="12.733475656090924"><ele>673.0</ele><time>2026-04-11T08:30:18Z</time></trkpt><trkpt lat="42.66537938608629" lon="12.733570813362252"><ele>670.1666666666667</ele><time>2026-04-11T08:30:24Z</time></trkpt><trkpt lat="42.66546934622038" lon="12.733591759322858"><ele>667.3333333333334</ele><time>2026-04-11T08:30:57Z</time></trkpt><trkpt lat="42.66552007911256" lon="12.733645404796347"><ele>664.5</ele><time>2026-04-11T08:31:19Z</time></trkpt><trkpt lat="42.66557503372828" lon="12.733704820895676"><ele>661.6666666666666</ele><time>2026-04-11T08:31:26Z</time></trkpt><trkpt lat="42.66562593881405" lon="12.733781951308522"><ele>658.8333333333333</ele><time>2026-04-11T08:31:31Z</time></trkpt><trkpt lat="42.665697450084615" lon="12.733781662793355"><ele>656.0</ele><time>2026-04-11T08:32:05Z</time></trkpt><trkpt lat="42.66578008810225" lon="12.733767670331329"><ele>655.9999999999999</ele><time>2026-04-11T08:33:09Z</time></trkpt><trkpt lat="42.66572468680516" lon="12.733715195662203"><ele>656.0</ele><time>2026-04-11T08:33:43Z</time></trkpt><trkpt lat="42.665669356851474" lon="12.733671293786706"><ele>656.0</ele><time>2026-04-11T08:33:52Z</time></trkpt><trkpt lat="42.66560012000171" lon="12.733645156532397"><ele>656.0</ele><time>2026-04-11T08:33:58Z</time></trkpt><trkpt lat="42.66554440092382" lon="12.733585202707749"><ele>656.0</ele><time>2026-04-11T08:34:04Z</time></trkpt><trkpt lat="42.66552634031532" lon="12.733491558664156"><ele>655.9999999999999</ele><time>2026-04-11T08:34:11Z</time></trkpt><trkpt lat="42.66557994517768" lon="12.733426701058779"><ele>656.0</ele><time>2026-04-11T08:34:17Z</time></trkpt><trkpt lat="42.6656455985509" lon="12.733446320237755"><ele>655.9999999999999</ele><time>2026-04-11T08:34:27Z</time></trkpt><trkpt lat="42.66569191325421" lon="12.733507583774562"><ele>656.0</ele><time>2026-04-11T08:34:33Z</time></trkpt><trkpt lat="42.665762009327395" lon="12.733536284246085"><ele>656.0</ele><time>2026-04-11T08:34:39Z</time></trkpt><trkpt lat="42.66581411831975" lon="12.733598164450012"><ele>656.0</ele><time>2026-04-11T08:34:44Z</time></trkpt><trkpt lat="42.665877271248995" lon="12.733601751044754"><ele>656.0</ele><time>2026-04-11T08:34:49Z</time></trkpt><trkpt lat="42.665946516402386" lon="12.733618120085508"><ele>655.9999999999999</ele><time>2026-04-11T08:34:58Z</time></trkpt><trkpt lat="42.66590749070066" lon="12.733545809997961"><ele>656.0</ele><time>2026-04-11T08:35:11Z</time></trkpt><trkpt lat="42.66584247385184" lon="12.733521492988102"><ele>656.4285714285713</ele><time>2026-04-11T08:35:17Z</time></trkpt><trkpt lat="42.66578282864642" lon="12.733493336749058"><ele>656.8571428571429</ele><time>2026-04-11T08:35:25Z</time></trkpt><trkpt lat="42.66571625053421" lon="12.7334685293369"><ele>657.2857142857142</ele><time>2026-04-11T08:35:32Z</time></trkpt><trkpt lat="42.66565068925626" lon="12.733429936889591"><ele>657.7142857142857</ele><time>2026-04-11T08:35:40Z</time></trkpt><trkpt lat="42.66565709151184" lon="12.733341329060417"><ele>658.1428571428571</ele><time>2026-04-11T08:35:47Z</time></trkpt><trkpt lat="42.66565329801687" lon="12.733248150286228"><ele>658.5714285714286</ele><time>2026-04-11T08:35:55Z</time></trkpt><trkpt lat="42.66563287778091" lon="12.733161721674934"><ele>659.0</ele><time>2026-04-11T08:36:03Z</time></trkpt><trkpt lat="42.66559576924127" lon="12.733089243159576"><ele>659.0</ele><time>2026-04-11T08:36:12Z</time></trkpt><trkpt lat="42.66556745437431" lon="12.733004591337645"><ele>659.0</ele><time>2026-04-11T08:36:24Z</time></trkpt><trkpt lat="42.66553979449804" lon="12.732925008879043"><ele>659.0</ele><time>2026-04-11T08:36:30Z</time></trkpt><trkpt lat="42.66558045150571" lon="12.732838031838726"><ele>659.0</ele><time>2026-04-11T08:36:45Z</time></trkpt><trkpt lat="42.66563874132789" lon="12.732883925005378"><ele>659.0</ele><time>2026-04-11T08:36:53Z</time></trkpt><trkpt lat="42.66570379434093" lon="12.732912685094778"><ele>659.0</ele><time>2026-04-11T08:37:00Z</time></trkpt><trkpt lat="42.66576923507679" lon="12.732927452560057"><ele>659.0</ele><time>2026-04-11T08:37:06Z</time></trkpt><trkpt lat="42.66582168047377" lon="12.732868290683074"><ele>659.0</ele><time>2026-04-11T08:37:12Z</time></trkpt><trkpt lat="42.665859896941264" lon="12.732793147948108"><ele>659.0</ele><time>2026-04-11T08:37:18Z</time></trkpt><trkpt lat="42.66588931498062" lon="12.732710822305629"><ele>659.0</ele><time>2026-04-11T08:37:25Z</time></trkpt><trkpt lat="42.665954573642516" lon="12.73269091123055"><ele>659.0</ele><time>2026-04-11T08:37:52Z</time></trkpt><trkpt lat="42.66603414705057" lon="12.73269475449548"><ele>659.0</ele><time>2026-04-11T08:37:56Z</time></trkpt><trkpt lat="42.666100448218195" lon="12.7326989651297"><ele>659.0</ele><time>2026-04-11T08:38:00Z</time></trkpt><trkpt lat="42.66617447736395" lon="12.732704247131737"><ele>659.0</ele><time>2026-04-11T08:38:04Z</time></trkpt><trkpt lat="42.66624659090009" lon="12.732734057756806"><ele>656.8571428571429</ele><time>2026-04-11T08:38:08Z</time></trkpt><trkpt lat="42.66631064261216" lon="12.732758128702685"><ele>654.7142857142857</ele><time>2026-04-11T08:38:12Z</time></trkpt><trkpt lat="42.666383892124976" lon="12.732764104084751"><ele>652.5714285714286</ele><time>2026-04-11T08:38:17Z</time></trkpt><trkpt lat="42.666448205859076" lon="12.732788724683218"><ele>650.4285714285714</ele><time>2026-04-11T08:38:21Z</time></trkpt><trkpt lat="42.66651599011254" lon="12.732815692768844"><ele>648.2857142857142</ele><time>2026-04-11T08:38:26Z</time></trkpt><trkpt lat="42.666590298864655" lon="12.732845906028055"><ele>646.1428571428571</ele><time>2026-04-11T08:38:32Z</time></trkpt><trkpt lat="42.666669019849714" lon="12.732914052672074"><ele>644.0</ele><time>2026-04-11T08:38:36Z</time></trkpt><trkpt lat="42.66670640444733" lon="12.732984955804556"><ele>644.0</ele><time>2026-04-11T08:38:39Z</time></trkpt><trkpt lat="42.66671066456387" lon="12.733077086534495"><ele>644.0</ele><time>2026-04-11T08:38:50Z</time></trkpt><trkpt lat="42.66678933441678" lon="12.733122670711191"><ele>644.0</ele><time>2026-04-11T08:39:12Z</time></trkpt><trkpt lat="42.66687206178223" lon="12.733107863270439"><ele>644.0</ele><time>2026-04-11T08:39:17Z</time></trkpt><trkpt lat="42.66694874985123" lon="12.733091214277277"><ele>644.0</ele><time>2026-04-11T08:39:21Z</time></trkpt><trkpt lat="42.66701835033864" lon="12.733049246537515"><ele>644.0</ele><time>2026-04-11T08:39:26Z</time></trkpt><trkpt lat="42.66707173871954" lon="12.732998858485361"><ele>644.7142857142857</ele><time>2026-04-11T08:39:31Z</time></trkpt><trkpt lat="42.66712770081662" lon="12.7329451438289"><ele>645.4285714285714</ele><time>2026-04-11T08:39:37Z</time></trkpt><trkpt lat="42.667184456650894" lon="12.732884044322669"><ele>646.1428571428571</ele><time>2026-04-11T08:39:43Z</time></trkpt><trkpt lat="42.66723560754068" lon="12.73282009713953"><ele>646.8571428571429</ele><time>2026-04-11T08:39:50Z</time></trkpt><trkpt lat="42.66729380593461" lon="12.732750848803178"><ele>647.5714285714286</ele><time>2026-04-11T08:39:55Z</time></trkpt><trkpt lat="42.66734852197658" lon="12.732680830204337"><ele>648.2857142857142</ele><time>2026-04-11T08:40:01Z</time></trkpt><trkpt lat="42.66735243786657" lon="12.732594345061186"><ele>649.0</ele><time>2026-04-11T08:40:07Z</time></trkpt><trkpt lat="42.66728647305515" lon="12.732573903081835"><ele>648.9999999999999</ele><time>2026-04-11T08:40:13Z</time></trkpt><trkpt lat="42.66722181891716" lon="12.732605888410257"><ele>649.0</ele><time>2026-04-11T08:40:18Z</time></trkpt><trkpt lat="42.66716744130313" lon="12.732655225904166"><ele>649.0</ele><time>2026-04-11T08:40:22Z</time></trkpt><trkpt lat="42.66711926777948" lon="12.732710884787256"><ele>649.0</ele><time>2026-04-11T08:40:27Z</time></trkpt><trkpt lat="42.66708661593366" lon="12.732800897990796"><ele>649.0</ele><time>2026-04-11T08:40:34Z</time></trkpt><trkpt lat="42.667041062224364" lon="12.732871237231462"><ele>648.9999999999999</ele><time>2026-04-11T08:40:38Z</time></trkpt><trkpt lat="42.666987506291335" lon="12.732917472356513"><ele>649.0</ele><time>2026-04-11T08:40:42Z</time></trkpt><trkpt lat="42.666923477338365" lon="12.73288407807945"><ele>648.9999999999999</ele><time>2026-04-11T08:40:47Z</time></trkpt><trkpt lat="42.66692840622311" lon="12.732791785228649"><ele>649.0</ele><time>2026-04-11T08:40:52Z</time></trkpt><trkpt lat="42.66693956075313" lon="12.732699319125807"><ele>649.0</ele><time>2026-04-11T08:41:05Z</time></trkpt><trkpt lat="42.66697246227401" lon="12.732612171018987"><ele>649.0</ele><time>2026-04-11T08:41:12Z</time></trkpt><trkpt lat="42.66700661825944" lon="12.732522693889726"><ele>649.0</ele><time>2026-04-11T08:41:18Z</time></trkpt><trkpt lat="42.66702966779178" lon="12.732437456970823"><ele>648.9999999999999</ele><time>2026-04-11T08:41:25Z</time></trkpt><trkpt lat="42.667075913909805" lon="12.732375479218017"><ele>649.0</ele><time>2026-04-11T08:41:40Z</time></trkpt><trkpt lat="42.66711829847684" lon="12.732294097471042"><ele>648.9999999999999</ele><time>2026-04-11T08:41:48Z</time></trkpt><trkpt lat="42.66718212301249" lon="12.732283991787895"><ele>649.0</ele><time>2026-04-11T08:41:54Z</time></trkpt><trkpt lat="42.66724405614764" lon="12.73232681032901"><ele>649.0</ele><time>2026-04-11T08:41:58Z</time></trkpt><trkpt lat="42.66733069245799" lon="12.732314077775818"><ele>649.0</ele><time>2026-04-11T08:42:04Z</time></trkpt><trkpt lat="42.66735515446242" lon="12.732224229699485"><ele>649.0</ele><time>2026-04-11T08:42:08Z</time></trkpt><trkpt lat="42.66736017617186" lon="12.73212539442503"><ele>648.9999999999999</ele><time>2026-04-11T08:42:13Z</time></trkpt><trkpt lat="42.667335825628804" lon="12.732043558804188"><ele>649.0</ele><time>2026-04-11T08:42:17Z</time></trkpt><trkpt lat="42.667348270550285" lon="12.731949754002848"><ele>648.9999999999999</ele><time>2026-04-11T08:42:22Z</time></trkpt><trkpt lat="42.667387211024774" lon="12.731870574198867"><ele>649.0</ele><time>2026-04-11T08:42:27Z</time></trkpt><trkpt lat="42.667388962911026" lon="12.7317744745836"><ele>649.0</ele><time>2026-04-11T08:42:33Z</time></trkpt><trkpt lat="42.667392365203554" lon="12.731686517709917"><ele>649.0</ele><time>2026-04-11T08:42:38Z</time></trkpt><trkpt lat="42.667329471670705" lon="12.731662859664938"><ele>649.0</ele><time>2026-04-11T08:42:44Z</time></trkpt><trkpt lat="42.66730143361979" lon="12.731759165729242"><ele>648.9999999999999</ele><time>2026-04-11T08:42:49Z</time></trkpt><trkpt lat="42.66728084993512" lon="12.731843861747492"><ele>649.0</ele><time>2026-04-11T08:42:54Z</time></trkpt><trkpt lat="42.66724966952425" lon="12.731938835815427"><ele>648.9999999999999</ele><time>2026-04-11T08:43:00Z</time></trkpt><trkpt lat="42.667201287195574" lon="12.732006319825507"><ele>649.0</ele><time>2026-04-11T08:43:14Z</time></trkpt><trkpt lat="42.66715559855025" lon="12.73207618703856"><ele>649.0</ele><time>2026-04-11T08:43:28Z</time></trkpt><trkpt lat="42.66710848851463" lon="12.732134660187235"><ele>649.0</ele><time>2026-04-11T08:43:34Z</time></trkpt><trkpt lat="42.66705316875164" lon="12.732189530278868"><ele>649.0</ele><time>2026-04-11T08:44:08Z</time></trkpt><trkpt lat="42.66700907527785" lon="12.732260655033528"><ele>648.9999999999999</ele><time>2026-04-11T08:44:13Z</time></trkpt><trkpt lat="42.666950139194306" lon="12.732325360348403"><ele>649.0</ele><time>2026-04-11T08:44:20Z</time></trkpt><trkpt lat="42.66691170496893" lon="12.7323934810903"><ele>648.9999999999999</ele><time>2026-04-11T08:44:25Z</time></trkpt><trkpt lat="42.66695963995444" lon="12.732304967548805"><ele>649.0</ele><time>2026-04-11T08:46:23Z</time></trkpt><trkpt lat="42.66689908408692" lon="12.732350625611023"><ele>649.0</ele><time>2026-04-11T08:46:35Z</time></trkpt><trkpt lat="42.66684203617218" lon="12.732394781553044"><ele>649.0</ele><time>2026-04-11T08:47:30Z</time></trkpt><trkpt lat="42.66681055384991" lon="12.732299327986048"><ele>649.0</ele><time>2026-04-11T08:48:11Z</time></trkpt><trkpt lat="42.66674911695717" lon="12.732259297850758"><ele>648.9999999999999</ele><time>2026-04-11T08:48:21Z</time></trkpt><trkpt lat="42.66668547392238" lon="12.732269516098711"><ele>649.0</ele><time>2026-04-11T08:48:28Z</time></trkpt><trkpt lat="42.66661554417246" lon="12.732291773228255"><ele>650.2857142857142</ele><time>2026-04-11T08:48:33Z</time></trkpt><trkpt lat="42.666552113884215" lon="12.732303322140112"><ele>651.5714285714286</ele><time>2026-04-11T08:48:37Z</time></trkpt><trkpt lat="42.66648142948605" lon="12.732313141483473"><ele>652.8571428571429</ele><time>2026-04-11T08:48:42Z</time></trkpt><trkpt lat="42.66642029512262" lon="12.732349952037001"><ele>654.1428571428571</ele><time>2026-04-11T08:48:46Z</time></trkpt><trkpt lat="42.66635178497847" lon="12.732394844141739"><ele>655.4285714285714</ele><time>2026-04-11T08:48:51Z</time></trkpt><trkpt lat="42.66628460507413" lon="12.732397581718644"><ele>656.7142857142857</ele><time>2026-04-11T08:48:57Z</time></trkpt><trkpt lat="42.666240244722005" lon="12.73231904051025"><ele>658.0</ele><time>2026-04-11T08:49:04Z</time></trkpt><trkpt lat="42.66620690667241" lon="12.732240823226508"><ele>658.0</ele><time>2026-04-11T08:49:10Z</time></trkpt><trkpt lat="42.66617801171718" lon="12.732160716733102"><ele>658.0</ele><time>2026-04-11T08:49:17Z</time></trkpt><trkpt lat="42.666152353306714" lon="12.732079012833438"><ele>658.0</ele><time>2026-04-11T08:49:25Z</time></trkpt><trkpt lat="42.66613682214954" lon="12.731989134552622"><ele>658.0</ele><time>2026-04-11T08:49:33Z</time></trkpt><trkpt lat="42.66612762636791" lon="12.731894309797184"><ele>658.0</ele><time>2026-04-11T08:49:41Z</time></trkpt><trkpt lat="42.66611454017388" lon="12.731806708914227"><ele>658.0</ele><time>2026-04-11T08:49:52Z</time></trkpt><trkpt lat="42.66614959972541" lon="12.731735214253703"><ele>658.0</ele><time>2026-04-11T08:50:04Z</time></trkpt><trkpt lat="42.666162263182656" lon="12.731644223157168"><ele>660.4285714285714</ele><time>2026-04-11T08:50:13Z</time></trkpt><trkpt lat="42.66618074730905" lon="12.731552430163191"><ele>662.8571428571429</ele><time>2026-04-11T08:50:23Z</time></trkpt><trkpt lat="42.66620041949588" lon="12.73146885602201"><ele>665.2857142857142</ele><time>2026-04-11T08:50:36Z</time></trkpt><trkpt lat="42.66622750475807" lon="12.731383150339795"><ele>667.7142857142858</ele><time>2026-04-11T08:50:52Z</time></trkpt><trkpt lat="42.666242482379864" lon="12.731298328201163"><ele>670.1428571428571</ele><time>2026-04-11T08:51:03Z</time></trkpt><trkpt lat="42.66626173044228" lon="12.73121632392549"><ele>672.5714285714286</ele><time>2026-04-11T08:51:14Z</time></trkpt><trkpt lat="42.66627761347658" lon="12.731133070500574"><ele>675.0</ele><time>2026-04-11T08:51:22Z</time></trkpt><trkpt lat="42.66628133964895" lon="12.731046660760121"><ele>676.5714285714286</ele><time>2026-04-11T08:51:30Z</time></trkpt><trkpt lat="42.6663401216237" lon="12.731004999810265"><ele>678.1428571428571</ele><time>2026-04-11T08:51:35Z</time></trkpt><trkpt lat="42.666367703142775" lon="12.730919595276985"><ele>679.7142857142858</ele><time>2026-04-11T08:51:42Z</time></trkpt><trkpt lat="42.66629469168479" lon="12.730927444878027"><ele>681.2857142857142</ele><time>2026-04-11T08:51:58Z</time></trkpt><trkpt lat="42.66622831002399" lon="12.730949928117663"><ele>682.8571428571429</ele><time>2026-04-11T08:52:22Z</time></trkpt><trkpt lat="42.66615879440699" lon="12.73099373109587"><ele>684.4285714285714</ele><time>2026-04-11T08:52:30Z</time></trkpt><trkpt lat="42.666079327804816" lon="12.730993940938603"><ele>686.0</ele><time>2026-04-11T08:52:38Z</time></trkpt><trkpt lat="42.66607775875582" lon="12.730908202100993"><ele>687.2857142857143</ele><time>2026-04-11T08:52:43Z</time></trkpt><trkpt lat="42.66609469920406" lon="12.730821483978207"><ele>688.5714285714286</ele><time>2026-04-11T08:52:51Z</time></trkpt><trkpt lat="42.66607296401692" lon="12.730730010412822"><ele>689.8571428571429</ele><time>2026-04-11T08:53:00Z</time></trkpt><trkpt lat="42.66600858550706" lon="12.730677101004103"><ele>691.1428571428571</ele><time>2026-04-11T08:53:06Z</time></trkpt><trkpt lat="42.66598289299934" lon="12.730758494434557"><ele>692.4285714285714</ele><time>2026-04-11T08:53:24Z</time></trkpt><trkpt lat="42.66595972018575" lon="12.730856885511445"><ele>693.7142857142858</ele><time>2026-04-11T08:53:30Z</time></trkpt><trkpt lat="42.66588782677276" lon="12.7308527067686"><ele>695.0</ele><time>2026-04-11T08:53:34Z</time></trkpt><trkpt lat="42.665838509913804" lon="12.730784204545992"><ele>695.0000000000001</ele><time>2026-04-11T08:53:38Z</time></trkpt><trkpt lat="42.66587684482772" lon="12.73070221741781"><ele>695.0</ele><time>2026-04-11T08:53:43Z</time></trkpt><trkpt lat="42.665880250701576" lon="12.730613714796974"><ele>695.0</ele><time>2026-04-11T08:53:51Z</time></trkpt><trkpt lat="42.665816024145165" lon="12.730586891476268"><ele>695.0</ele><time>2026-04-11T08:53:55Z</time></trkpt><trkpt lat="42.66574437335978" lon="12.730592884843762"><ele>695.0</ele><time>2026-04-11T08:54:00Z</time></trkpt><trkpt lat="42.66567767442807" lon="12.730622588038782"><ele>695.0000000000001</ele><time>2026-04-11T08:54:05Z</time></trkpt><trkpt lat="42.665619028175854" lon="12.730681206529072"><ele>695.0</ele><time>2026-04-11T08:54:10Z</time></trkpt><trkpt lat="42.66557889729927" lon="12.730758200778856"><ele>695.0000000000001</ele><time>2026-04-11T08:54:16Z</time></trkpt><trkpt lat="42.665625450281105" lon="12.730833125211959"><ele>695.0</ele><time>2026-04-11T08:54:27Z</time></trkpt><trkpt lat="42.665665836279" lon="12.730919691809369"><ele>695.0</ele><time>2026-04-11T08:54:33Z</time></trkpt><trkpt lat="42.665739647116226" lon="12.730940747830015"><ele>695.0</ele><time>2026-04-11T08:54:38Z</time></trkpt><trkpt lat="42.665810862732876" lon="12.730952626928351"><ele>695.0</ele><time>2026-04-11T08:54:43Z</time></trkpt><trkpt lat="42.66588391265083" lon="12.730943832237607"><ele>695.0000000000001</ele><time>2026-04-11T08:54:48Z</time></trkpt><trkpt lat="42.665856303371456" lon="12.731023396718927"><ele>695.0</ele><time>2026-04-11T08:55:06Z</time></trkpt><trkpt lat="42.66579064529672" lon="12.731033035414672"><ele>692.7142857142858</ele><time>2026-04-11T08:55:11Z</time></trkpt><trkpt lat="42.66573094328267" lon="12.731074205763395"><ele>690.4285714285714</ele><time>2026-04-11T08:55:16Z</time></trkpt><trkpt lat="42.66566541106335" lon="12.731098712297594"><ele>688.1428571428571</ele><time>2026-04-11T08:55:20Z</time></trkpt><trkpt lat="42.665602884841704" lon="12.731137091130494"><ele>685.8571428571429</ele><time>2026-04-11T08:55:25Z</time></trkpt><trkpt lat="42.66555040022594" lon="12.73120462950437"><ele>683.5714285714286</ele><time>2026-04-11T08:55:40Z</time></trkpt><trkpt lat="42.66554287341726" lon="12.731292001690734"><ele>681.2857142857143</ele><time>2026-04-11T08:55:45Z</time></trkpt><trkpt lat="42.66552556036966" lon="12.731375818200032"><ele>679.0</ele><time>2026-04-11T08:55:48Z</time></trkpt><trkpt lat="42.66550659628783" lon="12.73148235836179"><ele>679.0</ele><time>2026-04-11T08:55:53Z</time></trkpt><trkpt lat="42.66549746484259" lon="12.731569972587394"><ele>679.0</ele><time>2026-04-11T08:55:57Z</time></trkpt><trkpt lat="42.66548339574565" lon="12.731675064173764"><ele>679.0</ele><time>2026-04-11T08:56:02Z</time></trkpt><trkpt lat="42.66547198302256" lon="12.731778683383883"><ele>679.0</ele><time>2026-04-11T08:56:07Z</time></trkpt><trkpt lat="42.66546637102677" lon="12.73187044218585"><ele>679.0</ele><time>2026-04-11T08:56:11Z</time></trkpt><trkpt lat="42.665456804966205" lon="12.731973784002033"><ele>679.0</ele><time>2026-04-11T08:56:16Z</time></trkpt><trkpt lat="42.66543975226317" lon="12.732067623902815"><ele>679.0</ele><time>2026-04-11T08:56:21Z</time></trkpt><trkpt lat="42.665500688409104" lon="12.732107579806081"><ele>679.0</ele><time>2026-04-11T08:56:46Z</time></trkpt><trkpt lat="42.665636577540326" lon="12.732101547128552"><ele>679.0</ele><time>2026-04-11T08:56:55Z</time></trkpt><trkpt lat="42.665698845209896" lon="12.732046291731388"><ele>679.0</ele><time>2026-04-11T08:57:00Z</time></trkpt><trkpt lat="42.66575062566051" lon="12.731982265611657"><ele>679.0</ele><time>2026-04-11T08:57:05Z</time></trkpt><trkpt lat="42.665775133549545" lon="12.731901790404144"><ele>679.0</ele><time>2026-04-11T08:57:10Z</time></trkpt><trkpt lat="42.66581437466159" lon="12.731823045573035"><ele>679.0</ele><time>2026-04-11T08:57:15Z</time></trkpt><trkpt lat="42.66580356813185" lon="12.731734886528336"><ele>679.0</ele><time>2026-04-11T08:57:21Z</time></trkpt><trkpt lat="42.6657660047633" lon="12.731661549342578"><ele>679.0</ele><time>2026-04-11T08:57:34Z</time></trkpt><trkpt lat="42.66571471226334" lon="12.731605994222923"><ele>679.0</ele><time>2026-04-11T08:57:43Z</time></trkpt><trkpt lat="42.66565658894635" lon="12.731554508163544"><ele>679.0</ele><time>2026-04-11T08:57:52Z</time></trkpt><trkpt lat="42.66564333646495" lon="12.73146885776582"><ele>679.0</ele><time>2026-04-11T08:57:58Z</time></trkpt><trkpt lat="42.66568363363702" lon="12.731402521112434"><ele>679.0</ele><time>2026-04-11T08:58:04Z</time></trkpt><trkpt lat="42.665731240670866" lon="12.73134018844049"><ele>679.0</ele><time>2026-04-11T08:58:11Z</time></trkpt><trkpt lat="42.66578949979303" lon="12.731277829036022"><ele>679.0</ele><time>2026-04-11T08:58:23Z</time></trkpt><trkpt lat="42.66585192101977" lon="12.73124107136885"><ele>679.0</ele><time>2026-04-11T08:58:29Z</time></trkpt><trkpt lat="42.665918852732034" lon="12.731210808655902"><ele>679.0</ele><time>2026-04-11T08:58:35Z</time></trkpt><trkpt lat="42.66600395696022" lon="12.731201408907467"><ele>679.0</ele><time>2026-04-11T08:58:49Z</time></trkpt><trkpt lat="42.66602900705357" lon="12.731280697473052"><ele>679.0</ele><time>2026-04-11T08:59:16Z</time></trkpt><trkpt lat="42.666013468762365" lon="12.731366167299804"><ele>679.0</ele><time>2026-04-11T08:59:23Z</time></trkpt><trkpt lat="42.6660392962882" lon="12.731459477989988"><ele>679.0</ele><time>2026-04-11T08:59:29Z</time></trkpt><trkpt lat="42.66603317424997" lon="12.731546289921873"><ele>679.0</ele><time>2026-04-11T08:59:38Z</time></trkpt><trkpt lat="42.66603069390937" lon="12.731657601539615"><ele>679.0</ele><time>2026-04-11T08:59:42Z</time></trkpt><trkpt lat="42.66604430332593" lon="12.731757903834705"><ele>679.0</ele><time>2026-04-11T08:59:45Z</time></trkpt><trkpt lat="42.666056935027804" lon="12.731849796947477"><ele>679.0</ele><time>2026-04-11T08:59:49Z</time></trkpt><trkpt lat="42.66606957003065" lon="12.73195960219184"><ele>679.0</ele><time>2026-04-11T08:59:53Z</time></trkpt><trkpt lat="42.66608278090852" lon="12.732055443761965"><ele>679.0</ele><time>2026-04-11T08:59:57Z</time></trkpt><trkpt lat="42.66606567001034" lon="12.732144811726156"><ele>679.0</ele><time>2026-04-11T08:59:59Z</time></trkpt><trkpt lat="42.665996563074664" lon="12.732144320984434"><ele>679.0</ele><time>2026-04-11T09:00:10Z</time></trkpt><trkpt lat="42.66595898068148" lon="12.732068059269372"><ele>679.0</ele><time>2026-04-11T09:00:13Z</time></trkpt><trkpt lat="42.665941428428525" lon="12.731973820741917"><ele>679.0</ele><time>2026-04-11T09:00:18Z</time></trkpt><trkpt lat="42.66594124505622" lon="12.731883869712991"><ele>679.0</ele><time>2026-04-11T09:00:23Z</time></trkpt><trkpt lat="42.66594485340979" lon="12.731784553988042"><ele>679.0</ele><time>2026-04-11T09:00:29Z</time></trkpt><trkpt lat="42.66593102209681" lon="12.731698788738589"><ele>679.0</ele><time>2026-04-11T09:00:35Z</time></trkpt><trkpt lat="42.66592818355846" lon="12.731609973301202"><ele>679.0</ele><time>2026-04-11T09:00:43Z</time></trkpt><trkpt lat="42.665931039026646" lon="12.73150629346336"><ele>679.0</ele><time>2026-04-11T09:00:46Z</time></trkpt><trkpt lat="42.66587333191448" lon="12.73156760913225"><ele>679.0</ele><time>2026-04-11T09:00:55Z</time></trkpt><trkpt lat="42.66585743841514" lon="12.731659809710113"><ele>679.0</ele><time>2026-04-11T09:01:13Z</time></trkpt><trkpt lat="42.66585153423494" lon="12.731754258927056"><ele>679.0</ele><time>2026-04-11T09:01:17Z</time></trkpt><trkpt lat="42.66587527953638" lon="12.731840843604935"><ele>679.0</ele><time>2026-04-11T09:01:21Z</time></trkpt><trkpt lat="42.66586481114566" lon="12.731941281525923"><ele>679.0</ele><time>2026-04-11T09:01:25Z</time></trkpt><trkpt lat="42.66583452731864" lon="12.732031942810611"><ele>679.0</ele><time>2026-04-11T09:01:30Z</time></trkpt><trkpt lat="42.66579635393302" lon="12.73210149632776"><ele>677.4285714285714</ele><time>2026-04-11T09:01:46Z</time></trkpt><trkpt lat="42.66573267089213" lon="12.732156379993414"><ele>675.8571428571429</ele><time>2026-04-11T09:01:56Z</time></trkpt><trkpt lat="42.665691371191436" lon="12.732230135146686"><ele>674.2857142857142</ele><time>2026-04-11T09:02:01Z</time></trkpt><trkpt lat="42.66568053051526" lon="12.732318196419286"><ele>672.7142857142858</ele><time>2026-04-11T09:02:06Z</time></trkpt><trkpt lat="42.66567782111103" lon="12.732420647857293"><ele>671.1428571428571</ele><time>2026-04-11T09:02:11Z</time></trkpt><trkpt lat="42.66565885887285" lon="12.732505858002954"><ele>669.5714285714286</ele><time>2026-04-11T09:02:15Z</time></trkpt><trkpt lat="42.66564015928243" lon="12.732599598617973"><ele>668.0</ele><time>2026-04-11T09:02:20Z</time></trkpt><trkpt lat="42.66557418964404" lon="12.732568930084726"><ele>668.0</ele><time>2026-04-11T09:02:26Z</time></trkpt></trkseg></trk></gpx>